createdAt,value
2022-08-03T00:00:02.085Z,23.00
2022-08-03T00:01:02.030Z,22.94
2022-08-03T00:02:02.119Z,22.89
2022-08-03T00:03:02.110Z,22.82
2022-08-03T00:04:02.006Z,22.84
2022-08-03T00:05:01.984Z,22.94
2022-08-03T00:06:04.750Z,22.96
2022-08-03T00:07:01.991Z,23.03
2022-08-03T00:08:01.924Z,22.97
2022-08-03T00:09:01.964Z,23.00
2022-08-03T00:10:01.917Z,23.12
2022-08-03T00:11:01.935Z,23.18
2022-08-03T00:12:01.969Z,23.14
2022-08-03T00:13:01.861Z,23.12
2022-08-03T00:14:01.854Z,23.09
2022-08-03T00:15:02.841Z,23.09
2022-08-03T00:16:01.796Z,23.11
2022-08-03T00:17:01.825Z,23.07
2022-08-03T00:18:01.810Z,23.15
2022-08-03T00:19:02.127Z,23.00
2022-08-03T00:20:01.760Z,23.09
2022-08-03T00:21:01.778Z,23.06
2022-08-03T00:22:01.754Z,23.11
2022-08-03T00:23:01.732Z,23.03
2022-08-03T00:24:01.726Z,23.06
2022-08-03T00:25:01.689Z,23.06
2022-08-03T00:26:01.668Z,23.01
2022-08-03T00:27:01.693Z,23.01
2022-08-03T00:28:01.645Z,23.07
2022-08-03T00:29:01.723Z,22.97
2022-08-03T00:30:01.616Z,23.07
2022-08-03T00:31:01.583Z,22.97
2022-08-03T00:32:01.599Z,23.03
2022-08-03T00:33:01.570Z,22.94
2022-08-03T00:34:03.496Z,22.99
2022-08-03T00:35:07.894Z,22.88
2022-08-03T00:36:02.519Z,22.97
2022-08-03T00:37:01.517Z,22.94
2022-08-03T00:38:01.479Z,22.89
2022-08-03T00:39:01.517Z,23.01
2022-08-03T00:40:01.441Z,23.00
2022-08-03T00:41:01.429Z,22.97
2022-08-03T00:42:01.422Z,22.99
2022-08-03T00:43:01.424Z,23.09
2022-08-03T00:44:01.476Z,23.03
2022-08-03T00:45:01.363Z,22.99
2022-08-03T00:46:01.445Z,23.03
2022-08-03T00:47:01.315Z,23.09
2022-08-03T00:48:01.356Z,23.04
2022-08-03T00:49:02.332Z,23.09
2022-08-03T00:50:01.299Z,23.11
2022-08-03T00:51:01.224Z,23.07
2022-08-03T00:52:01.246Z,23.04
2022-08-03T00:53:02.277Z,23.07
2022-08-03T00:54:01.187Z,23.12
2022-08-03T00:55:01.178Z,23.09
2022-08-03T00:56:01.193Z,23.11
2022-08-03T00:57:01.137Z,23.14
2022-08-03T00:58:01.156Z,23.07
2022-08-03T00:59:02.131Z,23.00
2022-08-03T01:00:01.114Z,23.01
2022-08-03T01:01:01.135Z,23.00
2022-08-03T01:02:01.094Z,22.97
2022-08-03T01:03:01.099Z,23.00
2022-08-03T01:04:01.041Z,22.96
2022-08-03T01:05:01.047Z,22.91
2022-08-03T01:06:00.989Z,22.89
2022-08-03T01:07:00.978Z,22.96
2022-08-03T01:08:01.027Z,22.85
2022-08-03T01:09:00.939Z,22.85
2022-08-03T01:10:00.953Z,22.82
2022-08-03T01:11:00.937Z,22.75
2022-08-03T01:12:01.830Z,22.75
2022-08-03T01:13:01.928Z,22.75
2022-08-03T01:14:04.288Z,22.82
2022-08-03T01:15:01.857Z,22.78
2022-08-03T01:16:00.827Z,22.76
2022-08-03T01:17:00.827Z,22.79
2022-08-03T01:18:00.846Z,22.85
2022-08-03T01:19:00.787Z,22.69
2022-08-03T01:20:00.796Z,22.82
2022-08-03T01:21:00.807Z,22.72
2022-08-03T01:22:00.743Z,22.72
2022-08-03T01:23:00.757Z,22.79
2022-08-03T01:24:00.728Z,22.75
2022-08-03T01:25:00.677Z,22.75
2022-08-03T01:26:00.672Z,22.72
2022-08-03T01:27:00.665Z,22.69
2022-08-03T01:28:00.684Z,22.76
2022-08-03T01:29:00.615Z,22.72
2022-08-03T01:30:00.660Z,22.69
2022-08-03T01:31:00.603Z,22.69
2022-08-03T01:32:59.363Z,22.75
2022-08-03T01:33:02.070Z,22.70
2022-08-03T01:34:01.554Z,22.63
2022-08-03T01:35:00.539Z,22.67
2022-08-03T01:36:00.558Z,22.67
2022-08-03T01:37:00.509Z,22.60
2022-08-03T01:38:00.494Z,22.61
2022-08-03T01:39:00.485Z,22.54
2022-08-03T01:40:00.459Z,22.56
2022-08-03T01:41:00.436Z,22.57
2022-08-03T01:42:00.459Z,22.46
2022-08-03T01:43:00.423Z,22.51
2022-08-03T01:44:29.044Z,22.56
2022-08-03T01:45:01.373Z,22.60
2022-08-03T01:46:00.335Z,22.52
2022-08-03T01:47:00.341Z,22.56
2022-08-03T01:48:00.402Z,22.52
2022-08-03T01:49:00.328Z,22.54
2022-08-03T01:50:01.294Z,22.46
2022-08-03T01:51:00.281Z,22.51
2022-08-03T01:52:05.056Z,22.59
2022-08-03T01:53:01.261Z,22.66
2022-08-03T01:54:00.225Z,22.57
2022-08-03T01:55:00.207Z,22.56
2022-08-03T01:56:00.163Z,22.57
2022-08-03T01:57:00.149Z,22.57
2022-08-03T01:58:06.040Z,22.57
2022-08-03T01:59:01.157Z,22.56
2022-08-03T02:00:00.150Z,22.48
2022-08-03T02:01:00.175Z,22.52
2022-08-03T02:02:27.740Z,22.42
2022-08-03T02:03:01.088Z,22.51
2022-08-03T02:04:01.175Z,22.52
2022-08-03T02:05:00.022Z,22.56
2022-08-03T02:06:55.626Z,22.39
2022-08-03T02:07:03.339Z,22.42
2022-08-03T02:08:01.008Z,22.48
2022-08-03T02:08:59.985Z,22.41
2022-08-03T02:09:59.988Z,22.42
2022-08-03T02:10:59.934Z,22.39
2022-08-03T02:11:59.910Z,22.39
2022-08-03T02:12:59.970Z,22.46
2022-08-03T02:13:59.877Z,22.46
2022-08-03T02:15:00.047Z,22.44
2022-08-03T02:15:59.859Z,22.42
2022-08-03T02:16:59.821Z,22.45
2022-08-03T02:17:59.835Z,22.44
2022-08-03T02:18:59.823Z,22.39
2022-08-03T02:19:59.775Z,22.38
2022-08-03T02:20:59.768Z,22.45
2022-08-03T02:22:01.112Z,22.44
2022-08-03T02:22:59.777Z,22.54
2022-08-03T02:23:59.701Z,22.54
2022-08-03T02:24:59.743Z,22.46
2022-08-03T02:26:01.972Z,22.44
2022-08-03T02:26:59.661Z,22.48
2022-08-03T02:28:00.751Z,22.48
2022-08-03T02:28:59.644Z,22.49
2022-08-03T02:29:59.643Z,22.48
2022-08-03T02:30:59.652Z,22.52
2022-08-03T02:31:59.590Z,22.41
2022-08-03T02:32:59.589Z,22.51
2022-08-03T02:33:59.572Z,22.52
2022-08-03T02:34:59.558Z,22.56
2022-08-03T02:35:59.504Z,22.44
2022-08-03T02:36:59.525Z,22.46
2022-08-03T02:37:59.532Z,22.56
2022-08-03T02:38:59.466Z,22.46
2022-08-03T02:39:59.467Z,22.56
2022-08-03T02:40:59.432Z,22.54
2022-08-03T02:41:59.450Z,22.56
2022-08-03T02:42:59.456Z,22.56
2022-08-03T02:44:06.557Z,22.48
2022-08-03T02:45:00.382Z,22.51
2022-08-03T02:45:59.350Z,22.57
2022-08-03T02:46:59.343Z,22.52
2022-08-03T02:47:59.366Z,22.49
2022-08-03T02:48:59.339Z,22.45
2022-08-03T02:50:01.394Z,22.42
2022-08-03T02:50:59.694Z,22.48
2022-08-03T02:51:59.234Z,22.45
2022-08-03T02:52:59.281Z,22.38
2022-08-03T02:53:59.219Z,22.39
2022-08-03T02:54:59.185Z,22.29
2022-08-03T02:55:59.209Z,22.36
2022-08-03T02:56:59.179Z,22.33
2022-08-03T02:58:01.305Z,22.33
2022-08-03T02:58:59.144Z,22.39
2022-08-03T02:59:59.102Z,22.30
2022-08-03T03:00:59.117Z,22.24
2022-08-03T03:01:59.110Z,22.31
2022-08-03T03:02:59.578Z,22.29
2022-08-03T03:03:59.057Z,22.44
2022-08-03T03:05:56.152Z,22.33
2022-08-03T03:06:00.023Z,22.38
2022-08-03T03:06:58.980Z,22.30
2022-08-03T03:07:59.038Z,22.35
2022-08-03T03:08:59.924Z,22.26
2022-08-03T03:09:59.948Z,22.33
2022-08-03T03:10:58.951Z,22.26
2022-08-03T03:11:58.921Z,22.29
2022-08-03T03:12:58.914Z,22.27
2022-08-03T03:13:58.925Z,22.08
2022-08-03T03:14:58.865Z,22.11
2022-08-03T03:15:58.888Z,22.11
2022-08-03T03:16:58.847Z,21.94
2022-08-03T03:17:58.866Z,21.93
2022-08-03T03:18:58.802Z,21.96
2022-08-03T03:19:58.841Z,21.83
2022-08-03T03:20:58.760Z,21.77
2022-08-03T03:21:58.779Z,21.73
2022-08-03T03:22:58.752Z,21.74
2022-08-03T03:23:58.754Z,21.68
2022-08-03T03:24:58.707Z,21.73
2022-08-03T03:25:58.684Z,21.73
2022-08-03T03:26:58.681Z,21.63
2022-08-03T03:27:58.695Z,21.64
2022-08-03T03:28:58.629Z,21.56
2022-08-03T03:29:58.634Z,21.51
2022-08-03T03:30:58.622Z,21.51
2022-08-03T03:31:58.597Z,21.49
2022-08-03T03:32:58.607Z,21.52
2022-08-03T03:33:58.547Z,21.52
2022-08-03T03:34:58.533Z,21.46
2022-08-03T03:35:58.542Z,21.43
2022-08-03T03:36:58.500Z,21.42
2022-08-03T03:37:58.521Z,21.46
2022-08-03T03:38:58.507Z,21.40
2022-08-03T03:39:58.469Z,21.46
2022-08-03T03:40:58.449Z,21.43
2022-08-03T03:41:58.428Z,21.46
2022-08-03T03:42:58.432Z,21.33
2022-08-03T03:43:58.405Z,21.30
2022-08-03T03:44:58.367Z,21.30
2022-08-03T03:45:58.395Z,21.22
2022-08-03T03:46:58.324Z,21.28
2022-08-03T03:47:58.338Z,21.08
2022-08-03T03:48:58.381Z,21.22
2022-08-03T03:49:58.281Z,21.21
2022-08-03T03:50:58.274Z,21.12
2022-08-03T03:51:58.263Z,21.05
2022-08-03T03:52:58.249Z,21.13
2022-08-03T03:53:58.230Z,21.09
2022-08-03T03:55:01.003Z,21.18
2022-08-03T03:56:02.441Z,21.18
2022-08-03T03:56:58.165Z,21.15
2022-08-03T03:57:58.143Z,21.21
2022-08-03T03:58:58.149Z,21.15
2022-08-03T03:59:58.096Z,21.26
2022-08-03T04:00:58.216Z,21.30
2022-08-03T04:01:59.258Z,21.30
2022-08-03T04:02:58.062Z,21.36
2022-08-03T04:03:58.077Z,21.26
2022-08-03T04:04:58.029Z,21.34
2022-08-03T04:05:57.998Z,21.33
2022-08-03T04:06:57.980Z,21.34
2022-08-03T04:07:57.956Z,21.34
2022-08-03T04:08:57.986Z,21.37
2022-08-03T04:09:57.928Z,21.37
2022-08-03T04:10:58.904Z,21.40
2022-08-03T04:11:57.940Z,21.37
2022-08-03T04:12:57.887Z,21.42
2022-08-03T04:13:57.880Z,21.45
2022-08-03T04:14:58.862Z,21.40
2022-08-03T04:15:57.844Z,21.43
2022-08-03T04:16:57.817Z,21.51
2022-08-03T04:17:57.792Z,21.48
2022-08-03T04:18:57.820Z,21.51
2022-08-03T04:19:57.755Z,21.48
2022-08-03T04:20:57.739Z,21.59
2022-08-03T04:21:57.732Z,21.59
2022-08-03T04:22:57.713Z,21.49
2022-08-03T04:23:57.693Z,21.58
2022-08-03T04:24:57.696Z,21.59
2022-08-03T04:25:57.647Z,21.64
2022-08-03T04:26:57.642Z,21.67
2022-08-03T04:28:29.640Z,21.66
2022-08-03T04:28:58.664Z,21.66
2022-08-03T04:29:57.587Z,21.74
2022-08-03T04:30:57.549Z,21.74
2022-08-03T04:31:57.558Z,21.74
2022-08-03T04:32:57.563Z,21.66
2022-08-03T04:33:57.553Z,21.73
2022-08-03T04:34:57.484Z,21.63
2022-08-03T04:36:01.741Z,21.68
2022-08-03T04:36:58.568Z,21.68
2022-08-03T04:37:57.455Z,21.75
2022-08-03T04:38:57.491Z,21.70
2022-08-03T04:39:57.707Z,21.79
2022-08-03T04:40:57.424Z,21.67
2022-08-03T04:42:07.613Z,21.74
2022-08-03T04:42:58.348Z,21.83
2022-08-03T04:43:57.345Z,21.86
2022-08-03T04:45:01.016Z,21.86
2022-08-03T04:45:58.314Z,21.96
2022-08-03T04:46:57.312Z,21.96
2022-08-03T04:47:57.302Z,21.99
2022-08-03T04:48:57.364Z,22.12
2022-08-03T04:49:57.260Z,22.15
2022-08-03T04:50:57.250Z,22.21
2022-08-03T04:51:57.189Z,22.27
2022-08-03T04:52:57.158Z,22.31
2022-08-03T04:53:57.230Z,22.42
2022-08-03T04:54:57.134Z,22.46
2022-08-03T04:55:57.122Z,22.56
2022-08-03T04:56:57.187Z,22.64
2022-08-03T04:57:57.120Z,22.79
2022-08-03T04:58:57.126Z,22.82
2022-08-03T05:00:02.455Z,22.97
2022-08-03T05:00:59.042Z,22.91
2022-08-03T05:01:57.066Z,22.97
2022-08-03T05:02:57.049Z,23.06
2022-08-03T05:03:57.061Z,23.09
2022-08-03T05:04:57.006Z,23.12
2022-08-03T05:06:01.494Z,23.18
2022-08-03T05:06:58.000Z,23.23
2022-08-03T05:07:56.955Z,23.37
2022-08-03T05:08:57.010Z,23.86
2022-08-03T05:10:01.699Z,24.36
2022-08-03T05:10:59.082Z,24.51
2022-08-03T05:11:56.881Z,24.79
2022-08-03T05:12:56.896Z,25.05
2022-08-03T05:13:56.878Z,25.60
2022-08-03T05:14:56.945Z,26.32
2022-08-03T05:15:56.855Z,27.02
2022-08-03T05:16:56.794Z,27.45
2022-08-03T05:17:56.819Z,27.63
2022-08-03T05:18:56.830Z,27.77
2022-08-03T05:19:56.782Z,27.59
2022-08-03T05:20:56.765Z,27.59
2022-08-03T05:21:56.730Z,27.77
2022-08-03T05:22:56.702Z,28.09
2022-08-03T05:23:56.754Z,28.32
2022-08-03T05:24:56.664Z,28.45
2022-08-03T05:25:56.627Z,28.69
2022-08-03T05:26:56.639Z,28.79
2022-08-03T05:27:56.707Z,28.80
2022-08-03T05:28:56.628Z,28.95
2022-08-03T05:29:56.613Z,29.03
2022-08-03T05:30:57.574Z,28.87
2022-08-03T05:31:56.525Z,28.74
2022-08-03T05:32:56.559Z,28.73
2022-08-03T05:33:56.561Z,28.85
2022-08-03T05:34:56.480Z,28.82
2022-08-03T05:36:03.538Z,29.02
2022-08-03T05:36:58.543Z,29.42
2022-08-03T05:37:56.466Z,29.74
2022-08-03T05:39:30.031Z,29.69
2022-08-03T05:39:56.402Z,29.94
2022-08-03T05:40:57.552Z,29.66
2022-08-03T05:41:57.369Z,29.94
2022-08-03T05:42:56.350Z,30.28
2022-08-03T05:43:56.369Z,30.61
2022-08-03T05:44:56.316Z,30.97
2022-08-03T05:46:12.425Z,31.01
2022-08-03T05:46:57.296Z,31.18
2022-08-03T05:47:56.295Z,31.34
2022-08-03T05:48:56.340Z,31.28
2022-08-03T05:49:56.250Z,31.37
2022-08-03T05:50:56.245Z,31.46
2022-08-03T05:52:00.457Z,31.25
2022-08-03T05:52:57.194Z,30.93
2022-08-03T05:53:56.218Z,31.22
2022-08-03T05:54:57.756Z,31.35
2022-08-03T05:55:59.300Z,31.84
2022-08-03T05:56:58.183Z,32.10
2022-08-03T05:57:56.735Z,32.59
2022-08-03T05:58:56.281Z,32.95
2022-08-03T05:59:58.297Z,33.29
2022-08-03T06:00:56.075Z,33.43
2022-08-03T06:01:56.274Z,33.49
2022-08-03T06:02:56.050Z,33.60
2022-08-03T06:03:56.093Z,33.62
2022-08-03T06:04:57.083Z,33.59
2022-08-03T06:06:00.338Z,33.52
2022-08-03T06:06:56.002Z,33.81
2022-08-03T06:07:56.021Z,34.09
2022-08-03T06:08:56.101Z,34.18
2022-08-03T06:10:35.601Z,34.14
2022-08-03T06:10:57.017Z,34.03
2022-08-03T06:11:55.981Z,33.97
2022-08-03T06:12:55.967Z,33.78
2022-08-03T06:13:55.970Z,33.93
2022-08-03T06:14:55.863Z,33.94
2022-08-03T06:15:55.859Z,34.16
2022-08-03T06:16:56.867Z,34.00
2022-08-03T06:17:58.711Z,34.15
2022-08-03T06:18:57.858Z,34.09
2022-08-03T06:19:55.829Z,34.00
2022-08-03T06:20:55.776Z,33.97
2022-08-03T06:21:55.804Z,34.16
2022-08-03T06:23:00.359Z,34.24
2022-08-03T06:23:56.779Z,34.37
2022-08-03T06:24:56.733Z,34.55
2022-08-03T06:25:55.777Z,34.65
2022-08-03T06:26:55.791Z,34.94
2022-08-03T06:27:55.673Z,34.91
2022-08-03T06:28:55.682Z,35.09
2022-08-03T06:29:55.693Z,34.99
2022-08-03T06:30:55.618Z,34.55
2022-08-03T06:31:55.633Z,34.36
2022-08-03T06:32:55.598Z,34.24
2022-08-03T06:34:33.153Z,34.34
2022-08-03T06:34:56.638Z,34.55
2022-08-03T06:35:55.552Z,34.58
2022-08-03T06:37:01.728Z,34.91
2022-08-03T06:37:57.532Z,35.03
2022-08-03T06:38:55.509Z,35.03
2022-08-03T06:39:55.532Z,35.43
2022-08-03T06:40:55.518Z,35.61
2022-08-03T06:41:55.499Z,35.61
2022-08-03T06:42:55.457Z,35.62
2022-08-03T06:44:03.948Z,35.68
2022-08-03T06:44:56.449Z,35.46
2022-08-03T06:45:55.411Z,35.74
2022-08-03T06:46:55.400Z,36.21
2022-08-03T06:47:55.369Z,36.25
2022-08-03T06:48:55.380Z,35.81
2022-08-03T06:50:12.642Z,36.19
2022-08-03T06:50:56.484Z,36.41
2022-08-03T06:52:06.262Z,36.60
2022-08-03T06:52:56.349Z,36.83
2022-08-03T06:53:55.289Z,37.04
2022-08-03T06:54:55.314Z,37.06
2022-08-03T06:55:55.491Z,36.65
2022-08-03T06:56:55.232Z,36.35
2022-08-03T06:57:55.236Z,36.89
2022-08-03T06:58:55.239Z,37.12
2022-08-03T07:00:05.993Z,37.34
2022-08-03T07:00:56.213Z,37.75
2022-08-03T07:01:55.232Z,37.87
2022-08-03T07:02:58.279Z,37.88
2022-08-03T07:03:56.190Z,38.03
2022-08-03T07:04:55.174Z,38.37
2022-08-03T07:05:55.106Z,38.78
2022-08-03T07:06:55.136Z,38.89
2022-08-03T07:07:55.087Z,39.12
2022-08-03T07:08:59.195Z,39.35
2022-08-03T07:09:57.618Z,39.32
2022-08-03T07:10:55.067Z,39.29
2022-08-03T07:11:55.092Z,39.38
2022-08-03T07:12:56.097Z,39.34
2022-08-03T07:13:55.185Z,39.32
2022-08-03T07:14:59.792Z,39.10
2022-08-03T07:15:56.989Z,39.28
2022-08-03T07:16:55.971Z,39.24
2022-08-03T07:17:54.949Z,39.13
2022-08-03T07:18:54.981Z,39.22
2022-08-03T07:19:55.123Z,39.17
2022-08-03T07:20:54.936Z,39.34
2022-08-03T07:21:54.888Z,39.38
2022-08-03T07:22:55.904Z,39.61
2022-08-03T07:23:54.897Z,39.68
2022-08-03T07:24:54.897Z,40.13
2022-08-03T07:25:54.858Z,39.96
2022-08-03T07:26:54.856Z,39.53
2022-08-03T07:27:54.830Z,39.75
2022-08-03T07:28:54.792Z,39.51
2022-08-03T07:29:54.845Z,39.59
2022-08-03T07:30:54.813Z,39.80
2022-08-03T07:31:54.757Z,39.80
2022-08-03T07:32:54.777Z,39.75
2022-08-03T07:33:54.772Z,39.39
2022-08-03T07:34:58.503Z,39.41
2022-08-03T07:35:56.728Z,39.63
2022-08-03T07:36:54.685Z,39.66
2022-08-03T07:37:55.238Z,39.41
2022-08-03T07:38:54.673Z,39.53
2022-08-03T07:39:54.752Z,39.75
2022-08-03T07:40:54.654Z,39.81
2022-08-03T07:41:54.645Z,39.87
2022-08-03T07:42:54.619Z,39.96
2022-08-03T07:43:54.641Z,40.04
2022-08-03T07:44:54.633Z,40.16
2022-08-03T07:45:54.604Z,40.25
2022-08-03T07:46:54.591Z,40.34
2022-08-03T07:47:54.613Z,40.45
2022-08-03T07:48:54.570Z,40.64
2022-08-03T07:49:54.733Z,40.54
2022-08-03T07:50:54.517Z,40.38
2022-08-03T07:51:54.558Z,40.06
2022-08-03T07:52:54.480Z,40.04
2022-08-03T07:53:54.461Z,40.22
2022-08-03T07:54:54.530Z,40.54
2022-08-03T07:55:54.470Z,40.78
2022-08-03T07:56:54.459Z,40.88
2022-08-03T07:57:54.419Z,40.88
2022-08-03T07:58:54.465Z,41.28
2022-08-03T08:00:01.737Z,41.00
2022-08-03T08:00:55.420Z,40.88
2022-08-03T08:01:54.391Z,40.71
2022-08-03T08:02:54.369Z,40.68
2022-08-03T08:03:54.385Z,40.57
2022-08-03T08:04:54.409Z,40.73
2022-08-03T08:05:54.362Z,40.56
2022-08-03T08:06:54.300Z,40.63
2022-08-03T08:07:54.307Z,40.45
2022-08-03T08:08:54.295Z,40.28
2022-08-03T08:09:54.298Z,40.33
2022-08-03T08:10:58.256Z,40.45
2022-08-03T08:11:54.253Z,40.60
2022-08-03T08:12:54.235Z,40.98
2022-08-03T08:13:54.248Z,41.16
2022-08-03T08:14:54.219Z,41.26
2022-08-03T08:15:54.291Z,41.50
2022-08-03T08:16:54.177Z,41.33
2022-08-03T08:17:54.196Z,41.38
2022-08-03T08:18:54.226Z,41.26
2022-08-03T08:19:55.545Z,41.31
2022-08-03T08:20:54.137Z,41.29
2022-08-03T08:22:02.637Z,41.16
2022-08-03T08:22:55.103Z,40.98
2022-08-03T08:23:55.607Z,40.72
2022-08-03T08:24:54.088Z,40.57
2022-08-03T08:25:54.060Z,40.46
2022-08-03T08:26:54.192Z,40.61
2022-08-03T08:28:29.586Z,40.61
2022-08-03T08:28:55.005Z,40.51
2022-08-03T08:29:54.583Z,40.80
2022-08-03T08:30:54.056Z,41.00
2022-08-03T08:31:53.960Z,41.23
2022-08-03T08:32:53.980Z,41.31
2022-08-03T08:34:09.230Z,41.46
2022-08-03T08:34:56.628Z,41.80
2022-08-03T08:35:53.917Z,41.88
2022-08-03T08:36:53.916Z,42.14
2022-08-03T08:37:53.921Z,42.46
2022-08-03T08:38:53.876Z,42.67
2022-08-03T08:39:53.890Z,42.87
2022-08-03T08:40:53.889Z,42.52
2022-08-03T08:41:53.855Z,42.42
2022-08-03T08:42:58.924Z,41.51
2022-08-03T08:44:00.023Z,41.32
2022-08-03T08:44:54.885Z,41.05
2022-08-03T08:45:53.806Z,40.73
2022-08-03T08:46:53.785Z,40.45
2022-08-03T08:47:58.247Z,40.64
2022-08-03T08:48:55.835Z,41.02
2022-08-03T08:50:09.416Z,41.32
2022-08-03T08:50:55.781Z,41.55
2022-08-03T08:52:00.900Z,41.93
2022-08-03T08:52:55.746Z,41.95
2022-08-03T08:53:53.748Z,42.30
2022-08-03T08:54:53.717Z,42.68
2022-08-03T08:55:58.790Z,43.08
2022-08-03T08:56:54.675Z,43.53
2022-08-03T08:57:53.653Z,43.22
2022-08-03T08:58:53.625Z,43.16
2022-08-03T08:59:57.268Z,43.34
2022-08-03T09:00:54.691Z,43.08
2022-08-03T09:01:53.593Z,42.65
2022-08-03T09:02:53.590Z,42.50
2022-08-03T09:03:53.607Z,42.84
2022-08-03T09:04:53.598Z,43.10
2022-08-03T09:05:56.098Z,42.83
2022-08-03T09:07:18.663Z,42.30
2022-08-03T09:07:55.513Z,41.86
2022-08-03T09:08:53.543Z,41.82
2022-08-03T09:10:10.637Z,41.36
2022-08-03T09:10:54.513Z,40.79
2022-08-03T09:12:01.210Z,40.31
2022-08-03T09:12:54.473Z,40.34
2022-08-03T09:13:53.452Z,40.24
2022-08-03T09:15:14.694Z,40.38
2022-08-03T09:16:00.790Z,40.54
2022-08-03T09:16:54.400Z,40.91
2022-08-03T09:17:53.433Z,40.76
2022-08-03T09:18:53.411Z,40.98
2022-08-03T09:20:03.429Z,41.50
2022-08-03T09:20:54.391Z,41.70
2022-08-03T09:21:53.372Z,42.07
2022-08-03T09:22:53.331Z,42.21
2022-08-03T09:24:02.251Z,42.36
2022-08-03T09:25:21.484Z,42.61
2022-08-03T09:25:55.599Z,42.49
2022-08-03T09:26:53.854Z,42.73
2022-08-03T09:27:53.498Z,43.10
2022-08-03T09:29:03.888Z,42.98
2022-08-03T09:29:54.259Z,42.84
2022-08-03T09:30:53.282Z,42.54
2022-08-03T09:31:53.224Z,42.49
2022-08-03T09:32:53.222Z,42.89
2022-08-03T09:33:53.217Z,42.83
2022-08-03T09:34:57.826Z,42.98
2022-08-03T09:35:57.614Z,42.94
2022-08-03T09:36:53.210Z,43.38
2022-08-03T09:38:11.882Z,43.78
2022-08-03T09:38:54.135Z,43.70
2022-08-03T09:39:53.132Z,43.91
2022-08-03T09:40:57.464Z,43.87
2022-08-03T09:41:55.115Z,43.94
2022-08-03T09:42:53.098Z,43.37
2022-08-03T09:43:53.103Z,43.31
2022-08-03T09:44:53.094Z,43.08
2022-08-03T09:45:53.125Z,42.43
2022-08-03T09:46:53.038Z,42.15
2022-08-03T09:47:53.025Z,41.80
2022-08-03T09:48:53.019Z,41.00
2022-08-03T09:49:52.992Z,40.80
2022-08-03T09:50:58.605Z,40.28
2022-08-03T09:52:37.773Z,40.13
2022-08-03T09:52:53.961Z,40.57
2022-08-03T09:53:59.178Z,40.75
2022-08-03T09:54:53.960Z,40.75
2022-08-03T09:56:35.530Z,40.92
2022-08-03T09:56:53.966Z,41.05
2022-08-03T09:57:52.887Z,41.21
2022-08-03T09:58:52.906Z,40.79
2022-08-03T10:00:01.897Z,40.46
2022-08-03T10:00:55.240Z,40.53
2022-08-03T10:01:52.918Z,40.72
2022-08-03T10:02:52.862Z,40.97
2022-08-03T10:04:04.504Z,40.88
2022-08-03T10:04:54.839Z,41.07
2022-08-03T10:05:57.494Z,41.25
2022-08-03T10:06:54.798Z,41.26
2022-08-03T10:07:52.764Z,41.29
2022-08-03T10:08:52.775Z,41.74
2022-08-03T10:09:52.733Z,42.02
2022-08-03T10:10:52.800Z,42.26
2022-08-03T10:11:52.729Z,42.55
2022-08-03T10:12:52.711Z,42.71
2022-08-03T10:13:52.702Z,43.14
2022-08-03T10:14:53.689Z,43.30
2022-08-03T10:16:22.767Z,42.46
2022-08-03T10:16:53.676Z,42.15
2022-08-03T10:17:52.632Z,41.92
2022-08-03T10:18:52.655Z,41.66
2022-08-03T10:19:52.607Z,41.29
2022-08-03T10:20:52.686Z,41.55
2022-08-03T10:21:52.599Z,41.70
2022-08-03T10:22:52.707Z,41.92
2022-08-03T10:23:52.563Z,42.26
2022-08-03T10:24:52.568Z,42.12
2022-08-03T10:25:52.577Z,41.86
2022-08-03T10:26:52.537Z,41.95
2022-08-03T10:27:52.531Z,41.82
2022-08-03T10:28:52.495Z,41.83
2022-08-03T10:29:52.484Z,41.88
2022-08-03T10:30:52.504Z,41.96
2022-08-03T10:31:54.494Z,42.04
2022-08-03T10:32:53.449Z,41.97
2022-08-03T10:33:53.345Z,42.04
2022-08-03T10:35:00.037Z,41.53
2022-08-03T10:35:53.442Z,40.92
2022-08-03T10:36:52.400Z,40.75
2022-08-03T10:37:56.681Z,40.31
2022-08-03T10:38:52.416Z,40.19
2022-08-03T10:39:52.359Z,39.81
2022-08-03T10:40:55.888Z,39.76
2022-08-03T10:41:54.328Z,39.63
2022-08-03T10:42:52.330Z,39.29
2022-08-03T10:43:52.306Z,38.92
2022-08-03T10:44:52.299Z,38.67
2022-08-03T10:45:52.304Z,38.44
2022-08-03T10:46:52.261Z,38.25
2022-08-03T10:47:52.251Z,38.09
2022-08-03T10:48:52.313Z,37.87
2022-08-03T10:49:52.255Z,37.49
2022-08-03T10:50:52.249Z,37.05
2022-08-03T10:51:54.277Z,37.02
2022-08-03T10:52:52.177Z,36.74
2022-08-03T10:53:55.088Z,36.71
2022-08-03T10:54:52.137Z,36.27
2022-08-03T10:55:52.169Z,35.89
2022-08-03T10:56:52.126Z,35.59
2022-08-03T10:57:52.534Z,35.58
2022-08-03T10:58:57.669Z,35.71
2022-08-03T10:59:53.110Z,35.81
2022-08-03T11:00:52.159Z,35.93
2022-08-03T11:01:58.170Z,36.05
2022-08-03T11:02:53.042Z,36.13
2022-08-03T11:03:52.035Z,36.15
2022-08-03T11:04:52.033Z,36.12
2022-08-03T11:05:52.043Z,36.22
2022-08-03T11:06:51.994Z,36.44
2022-08-03T11:07:53.055Z,36.56
2022-08-03T11:08:51.951Z,36.71
2022-08-03T11:09:51.995Z,36.77
2022-08-03T11:10:51.944Z,36.79
2022-08-03T11:11:51.896Z,36.93
2022-08-03T11:12:51.900Z,36.96
2022-08-03T11:13:51.901Z,36.84
2022-08-03T11:14:51.869Z,36.83
2022-08-03T11:15:51.898Z,36.48
2022-08-03T11:16:51.851Z,35.96
2022-08-03T11:17:56.020Z,35.55
2022-08-03T11:18:51.815Z,35.58
2022-08-03T11:19:57.063Z,35.40
2022-08-03T11:20:52.797Z,35.37
2022-08-03T11:21:51.771Z,35.29
2022-08-03T11:22:51.739Z,35.37
2022-08-03T11:24:04.888Z,35.49
2022-08-03T11:24:52.731Z,35.55
2022-08-03T11:25:55.134Z,35.61
2022-08-03T11:26:51.701Z,35.69
2022-08-03T11:27:51.649Z,35.68
2022-08-03T11:28:51.654Z,35.46
2022-08-03T11:29:51.614Z,34.78
2022-08-03T11:30:51.643Z,34.53
2022-08-03T11:31:51.971Z,34.40
2022-08-03T11:32:51.577Z,34.37
2022-08-03T11:33:51.563Z,34.27
2022-08-03T11:34:51.566Z,34.37
2022-08-03T11:35:51.628Z,34.49
2022-08-03T11:36:51.532Z,34.09
2022-08-03T11:38:01.931Z,34.01
2022-08-03T11:38:52.493Z,33.66
2022-08-03T11:40:23.877Z,33.57
2022-08-03T11:40:51.551Z,33.44
2022-08-03T11:41:51.497Z,33.43
2022-08-03T11:42:51.510Z,33.20
2022-08-03T11:43:51.497Z,33.18
2022-08-03T11:44:51.424Z,33.17
2022-08-03T11:45:51.505Z,33.20
2022-08-03T11:46:51.418Z,33.14
2022-08-03T11:47:51.656Z,33.17
2022-08-03T11:48:52.467Z,33.14
2022-08-03T11:49:51.378Z,33.02
2022-08-03T11:50:51.431Z,33.00
2022-08-03T11:51:51.334Z,32.93
2022-08-03T11:52:51.331Z,32.88
2022-08-03T11:53:51.311Z,32.98
2022-08-03T11:54:56.967Z,33.06
2022-08-03T11:55:52.306Z,33.20
2022-08-03T11:56:51.269Z,33.29
2022-08-03T11:59:01.814Z,33.33
2022-08-03T11:59:16.737Z,33.45
2022-08-03T11:59:52.223Z,33.52
2022-08-03T12:00:51.261Z,33.28
2022-08-03T12:01:51.228Z,33.18
2022-08-03T12:02:51.244Z,32.76
2022-08-03T12:03:51.200Z,32.69
2022-08-03T12:04:51.186Z,32.50
2022-08-03T12:05:52.597Z,32.43
2022-08-03T12:06:51.249Z,32.35
2022-08-03T12:08:03.409Z,32.39
2022-08-03T12:08:52.087Z,32.47
2022-08-03T12:09:51.077Z,32.46
2022-08-03T12:10:51.128Z,32.68
2022-08-03T12:11:59.994Z,32.84
2022-08-03T12:12:52.076Z,32.98
2022-08-03T12:14:26.826Z,33.20
2022-08-03T12:14:52.530Z,33.21
2022-08-03T12:15:52.018Z,33.43
2022-08-03T12:16:50.996Z,33.52
2022-08-03T12:17:53.724Z,33.56
2022-08-03T12:18:51.936Z,33.52
2022-08-03T12:19:50.946Z,33.55
2022-08-03T12:20:51.067Z,33.47
2022-08-03T12:21:57.395Z,33.52
2022-08-03T12:22:51.877Z,33.59
2022-08-03T12:23:50.910Z,33.65
2022-08-03T12:24:50.851Z,33.62
2022-08-03T12:25:50.875Z,33.55
2022-08-03T12:26:59.543Z,33.47
2022-08-03T12:27:51.799Z,33.56
2022-08-03T12:28:50.851Z,33.52
2022-08-03T12:29:58.177Z,33.53
2022-08-03T12:30:51.821Z,33.59
2022-08-03T12:31:50.767Z,33.50
2022-08-03T12:32:50.765Z,33.49
2022-08-03T12:33:50.794Z,33.49
2022-08-03T12:34:50.742Z,33.49
2022-08-03T12:35:52.312Z,33.65
2022-08-03T12:36:50.804Z,33.71
2022-08-03T12:37:50.691Z,33.84
2022-08-03T12:38:50.682Z,33.81
2022-08-03T12:40:01.607Z,33.78
2022-08-03T12:40:51.672Z,33.79
2022-08-03T12:41:50.627Z,33.94
2022-08-03T12:42:50.611Z,33.82
2022-08-03T12:43:50.670Z,33.84
2022-08-03T12:44:50.567Z,33.87
2022-08-03T12:45:51.667Z,33.82
2022-08-03T12:46:50.563Z,33.79
2022-08-03T12:47:51.524Z,33.77
2022-08-03T12:48:50.541Z,33.79
2022-08-03T12:49:50.458Z,33.81
2022-08-03T12:50:53.586Z,33.81
2022-08-03T12:51:50.469Z,33.82